Time;durP1;ratioP1;P1;durP2;ratioP2;P2;SDS_P1;SDS_P2;PMS_P1;PMS_P2;Temp;Humidity;BMP_temperature;BMP_pressure;BME280_temperature;BME280_humidity;BME280_pressure;Samples;Min_cycle;Max_cycle;Signal;HPM_P1;HPM_P2
2022/12/13 00:01:15;;;;;;;27.90;14.97;;;;;;;;;;5055082;28;20536;-45
2022/12/13 00:03:42;;;;;;;30.97;15.83;;;;;;;;;;5054986;28;20614;-45
2022/12/13 00:06:11;;;;;;;28.73;16.03;;;;;;;;;;5055372;28;20235;-46
2022/12/13 00:08:38;;;;;;;27.63;14.93;;;;;;;;;;5055224;28;20536;-45
2022/12/13 00:11:07;;;;;;;28.43;14.73;;;;;;;;;;5054953;28;20211;-46
2022/12/13 00:13:34;;;;;;;27.30;14.60;;;;;;;;;;5054868;28;20200;-45
2022/12/13 00:16:04;;;;;;;26.03;14.00;;;;;;;;;;5039651;28;20201;-45
2022/12/13 00:18:32;;;;;;;24.97;14.20;;;;;;;;;;5034963;28;20225;-45
2022/12/13 00:21:03;;;;;;;29.50;13.30;;;;;;;;;;5034514;28;20213;-45
2022/12/13 00:23:30;;;;;;;26.53;13.50;;;;;;;;;;5035097;28;20296;-44
2022/12/13 00:26:03;;;;;;;24.53;14.00;;;;;;;;;;5034718;28;20667;-45
2022/12/13 00:28:30;;;;;;;31.37;14.70;;;;;;;;;;5035175;28;20209;-45
2022/12/13 00:30:58;;;;;;;33.43;15.83;;;;;;;;;;5034689;28;20212;-45
2022/12/13 00:33:45;;;;;;;26.07;12.03;;;;;;;;;;5034854;28;20231;-45
2022/12/13 00:36:12;;;;;;;23.80;12.70;;;;;;;;;;5035038;28;20220;-45
2022/12/13 00:38:39;;;;;;;21.63;13.27;;;;;;;;;;5034843;28;20217;-45
2022/12/13 00:41:15;;;;;;;25.30;14.63;;;;;;;;;;5034503;28;20209;-44
2022/12/13 00:43:42;;;;;;;29.87;14.03;;;;;;;;;;5035353;28;20195;-44
2022/12/13 00:46:17;;;;;;;23.47;13.03;;;;;;;;;;5034949;28;20285;-44
2022/12/13 00:48:48;;;;;;;28.60;14.87;;;;;;;;;;5034723;28;20219;-46
2022/12/13 00:51:16;;;;;;;25.23;12.50;;;;;;;;;;5034651;28;20197;-46
2022/12/13 00:53:43;;;;;;;27.03;15.63;;;;;;;;;;5033992;28;20274;-44
2022/12/13 00:56:15;;;;;;;26.20;14.00;;;;;;;;;;5034714;28;20243;-45
2022/12/13 00:58:42;;;;;;;31.93;15.73;;;;;;;;;;5034711;28;20214;-45
2022/12/13 01:01:21;;;;;;;26.97;14.47;;;;;;;;;;5034425;28;20196;-45
2022/12/13 01:03:48;;;;;;;24.23;13.73;;;;;;;;;;5034599;28;20242;-45
2022/12/13 01:06:33;;;;;;;30.97;14.80;;;;;;;;;;5034761;28;20236;-44
2022/12/13 01:09:05;;;;;;;31.00;16.43;;;;;;;;;;5034683;28;20548;-45
2022/12/13 01:11:32;;;;;;;22.83;12.20;;;;;;;;;;5034542;28;20204;-45
2022/12/13 01:13:59;;;;;;;24.17;13.43;;;;;;;;;;5034591;28;20232;-45
2022/12/13 01:16:27;;;;;;;27.17;15.40;;;;;;;;;;5033294;28;20240;-45
2022/12/13 01:18:56;;;;;;;22.73;14.47;;;;;;;;;;5034297;28;20535;-44
2022/12/13 01:21:23;;;;;;;29.97;14.73;;;;;;;;;;5034554;28;20201;-45
2022/12/13 01:23:50;;;;;;;24.13;14.50;;;;;;;;;;5034597;28;20201;-44
2022/12/13 01:26:20;;;;;;;27.40;14.27;;;;;;;;;;5034268;28;20675;-44
2022/12/13 01:28:47;;;;;;;16.03;10.37;;;;;;;;;;5034289;28;20220;-45
2022/12/13 01:31:17;;;;;;;24.67;12.87;;;;;;;;;;5035653;28;20209;-45
2022/12/13 01:33:45;;;;;;;17.30;11.43;;;;;;;;;;5038151;28;20632;-45
2022/12/13 01:36:14;;;;;;;21.83;13.47;;;;;;;;;;5037892;28;20213;-45
2022/12/13 01:38:42;;;;;;;24.20;12.03;;;;;;;;;;5037914;28;20258;-45
2022/12/13 01:41:14;;;;;;;20.57;11.47;;;;;;;;;;5037945;28;20639;-45
2022/12/13 01:43:46;;;;;;;17.90;11.03;;;;;;;;;;5038056;28;20246;-45
2022/12/13 01:46:15;;;;;;;23.63;11.40;;;;;;;;;;5037803;28;20228;-44
2022/12/13 01:48:48;;;;;;;19.43;11.33;;;;;;;;;;5037886;28;20200;-45
2022/12/13 01:51:18;;;;;;;20.07;10.70;;;;;;;;;;5037739;28;20204;-45
2022/12/13 01:53:45;;;;;;;24.50;12.73;;;;;;;;;;5037136;28;20228;-45
2022/12/13 01:56:35;;;;;;;23.47;11.73;;;;;;;;;;5037775;28;20224;-45
2022/12/13 01:59:04;;;;;;;23.93;12.13;;;;;;;;;;5037775;28;20586;-45
2022/12/13 02:01:31;;;;;;;18.63;11.33;;;;;;;;;;5037509;28;20201;-45
2022/12/13 02:03:58;;;;;;;19.63;10.97;;;;;;;;;;5037557;28;20207;-45
2022/12/13 02:06:34;;;;;;;27.10;12.63;;;;;;;;;;5037463;28;20248;-45
2022/12/13 02:09:04;;;;;;;17.10;11.20;;;;;;;;;;5037825;28;20208;-45
2022/12/13 02:11:34;;;;;;;24.60;12.43;;;;;;;;;;5038011;28;20205;-45
2022/12/13 02:14:01;;;;;;;18.77;11.33;;;;;;;;;;5037542;28;20264;-46
2022/12/13 02:16:44;;;;;;;20.40;11.23;;;;;;;;;;5037242;28;20550;-45
2022/12/13 02:19:45;;;;;;;21.67;12.73;;;;;;;;;;5037767;28;20223;-46
2022/12/13 02:22:21;;;;;;;26.83;14.37;;;;;;;;;;5036067;28;20205;-45
2022/12/13 02:24:51;;;;;;;20.70;12.97;;;;;;;;;;5037216;28;20216;-46
2022/12/13 02:27:49;;;;;;;21.70;11.70;;;;;;;;;;5037101;28;20224;-45
2022/12/13 02:30:23;;;;;;;23.33;12.30;;;;;;;;;;5037474;28;20271;-45
2022/12/13 02:33:03;;;;;;;15.00;9.07;;;;;;;;;;5036974;28;20654;-46
2022/12/13 02:35:43;;;;;;;23.83;12.07;;;;;;;;;;5036153;28;20503;-45
2022/12/13 02:38:22;;;;;;;22.80;11.13;;;;;;;;;;5037180;28;20189;-45
2022/12/13 02:41:18;;;;;;;25.13;13.47;;;;;;;;;;5036026;28;20205;-45
2022/12/13 02:43:54;;;;;;;16.47;11.07;;;;;;;;;;5034883;28;20548;-45
2022/12/13 02:46:29;;;;;;;18.40;10.90;;;;;;;;;;5036834;28;20227;-46
2022/12/13 02:48:58;;;;;;;19.77;11.60;;;;;;;;;;5036196;28;20211;-46
2022/12/13 02:51:26;;;;;;;18.67;10.93;;;;;;;;;;5035575;28;20235;-46
2022/12/13 02:53:53;;;;;;;19.70;12.07;;;;;;;;;;5036409;28;20601;-45
2022/12/13 02:56:20;;;;;;;17.40;10.70;;;;;;;;;;5036183;28;20242;-45
2022/12/13 02:58:50;;;;;;;21.03;11.30;;;;;;;;;;5036654;28;20212;-46
2022/12/13 03:01:48;;;;;;;21.53;11.53;;;;;;;;;;5036615;28;20247;-45
2022/12/13 03:06:28;;;;;;;20.03;11.47;;;;;;;;;;5035736;28;20247;-46
2022/12/13 03:07:29;;;;;;;19.37;11.50;;;;;;;;;;5035524;28;20639;-46
2022/12/13 03:10:04;;;;;;;19.03;10.43;;;;;;;;;;5035517;28;20205;-46
2022/12/13 03:15:34;;;;;;;14.57;9.80;;;;;;;;;;5036851;28;20205;-45
2022/12/13 03:18:17;;;;;;;15.83;10.10;;;;;;;;;;5036203;28;20224;-45
2022/12/13 03:20:50;;;;;;;18.37;11.23;;;;;;;;;;5035298;28;20204;-45
2022/12/13 03:23:18;;;;;;;20.10;11.97;;;;;;;;;;5036224;28;20185;-45
2022/12/13 03:25:47;;;;;;;18.03;10.77;;;;;;;;;;5035778;28;20212;-45
2022/12/13 03:28:15;;;;;;;16.20;10.67;;;;;;;;;;5034760;28;20225;-45
2022/12/13 03:30:42;;;;;;;16.87;11.13;;;;;;;;;;5035622;28;20212;-45
2022/12/13 03:33:09;;;;;;;18.07;10.67;;;;;;;;;;5035931;28;20299;-45
2022/12/13 03:35:38;;;;;;;13.37;9.03;;;;;;;;;;5035631;28;20647;-45
2022/12/13 03:38:15;;;;;;;15.40;10.10;;;;;;;;;;5035399;28;20283;-45
2022/12/13 03:41:00;;;;;;;20.43;11.17;;;;;;;;;;5035981;28;20211;-45
2022/12/13 03:43:28;;;;;;;18.63;10.30;;;;;;;;;;5034783;28;20658;-45
2022/12/13 03:45:55;;;;;;;20.33;10.50;;;;;;;;;;5035470;28;20201;-45
2022/12/13 03:48:22;;;;;;;17.50;9.93;;;;;;;;;;5035518;28;20217;-45
2022/12/13 03:50:51;;;;;;;20.17;11.17;;;;;;;;;;5035293;28;20643;-46
2022/12/13 03:53:20;;;;;;;16.37;10.27;;;;;;;;;;5035177;28;20197;-45
2022/12/13 03:56:04;;;;;;;15.27;9.67;;;;;;;;;;5035250;28;20243;-45
2022/12/13 03:58:32;;;;;;;22.37;9.77;;;;;;;;;;5035696;28;20189;-45
2022/12/13 04:01:05;;;;;;;17.37;9.57;;;;;;;;;;5035128;28;20673;-45
2022/12/13 04:03:32;;;;;;;15.93;9.97;;;;;;;;;;5035020;28;20266;-46
2022/12/13 04:05:59;;;;;;;19.13;9.70;;;;;;;;;;5035313;28;20258;-45
2022/12/13 04:08:26;;;;;;;20.63;10.87;;;;;;;;;;5035209;28;20256;-45
2022/12/13 04:10:53;;;;;;;19.93;10.23;;;;;;;;;;5035167;28;20219;-45
2022/12/13 04:13:31;;;;;;;17.97;10.80;;;;;;;;;;5035133;28;20224;-45
2022/12/13 04:16:00;;;;;;;16.57;9.30;;;;;;;;;;5035006;28;20200;-45
2022/12/13 04:18:27;;;;;;;13.80;9.30;;;;;;;;;;5035536;28;20232;-45
2022/12/13 04:20:56;;;;;;;17.63;10.93;;;;;;;;;;5035277;28;20200;-45
2022/12/13 04:23:23;;;;;;;16.93;10.27;;;;;;;;;;5035058;28;20215;-45
2022/12/13 04:25:50;;;;;;;18.27;10.27;;;;;;;;;;5034828;28;20199;-45
2022/12/13 04:28:17;;;;;;;13.70;9.30;;;;;;;;;;5034975;28;20220;-45
2022/12/13 04:30:50;;;;;;;16.07;10.20;;;;;;;;;;5043657;28;20204;-45
2022/12/13 04:33:23;;;;;;;19.80;11.10;;;;;;;;;;5037225;28;20275;-44
2022/12/13 04:35:50;;;;;;;14.80;8.70;;;;;;;;;;5035131;28;20195;-45
2022/12/13 04:38:18;;;;;;;21.30;11.40;;;;;;;;;;5043135;28;20630;-45
2022/12/13 04:40:45;;;;;;;20.00;9.83;;;;;;;;;;5044941;28;20215;-44
2022/12/13 04:43:12;;;;;;;15.67;9.63;;;;;;;;;;5054664;28;20718;-44
2022/12/13 04:45:39;;;;;;;14.70;9.27;;;;;;;;;;5054387;28;20626;-44
2022/12/13 04:48:07;;;;;;;13.70;9.10;;;;;;;;;;5054346;28;20666;-44
2022/12/13 04:50:33;;;;;;;18.87;10.50;;;;;;;;;;5053344;28;20582;-45
2022/12/13 04:53:01;;;;;;;19.83;10.67;;;;;;;;;;5054588;28;20212;-44
2022/12/13 04:55:28;;;;;;;22.23;11.50;;;;;;;;;;5053867;28;20289;-45
2022/12/13 04:57:55;;;;;;;24.77;10.47;;;;;;;;;;5055199;28;20203;-46
2022/12/13 05:00:22;;;;;;;19.07;11.73;;;;;;;;;;5054274;28;20261;-45
2022/12/13 05:02:49;;;;;;;15.07;9.93;;;;;;;;;;5047233;28;20239;-48
2022/12/13 05:05:16;;;;;;;15.93;10.37;;;;;;;;;;5052669;28;20228;-45
2022/12/13 05:07:44;;;;;;;15.80;10.17;;;;;;;;;;5049407;28;20243;-47
2022/12/13 05:10:12;;;;;;;16.40;8.77;;;;;;;;;;5053381;28;20223;-44
2022/12/13 05:12:59;;;;;;;18.37;10.47;;;;;;;;;;5055338;28;20562;-45
2022/12/13 05:15:27;;;;;;;14.23;9.30;;;;;;;;;;5047401;28;20226;-45
2022/12/13 05:17:54;;;;;;;14.67;9.37;;;;;;;;;;5044894;28;20578;-51
2022/12/13 05:20:21;;;;;;;15.53;8.47;;;;;;;;;;5057764;28;20235;-45
2022/12/13 05:22:48;;;;;;;19.17;10.20;;;;;;;;;;5057364;28;20243;-49
2022/12/13 05:25:15;;;;;;;21.00;12.13;;;;;;;;;;5057501;28;20220;-46
2022/12/13 05:27:42;;;;;;;16.03;9.77;;;;;;;;;;5057299;28;20545;-45
2022/12/13 05:30:10;;;;;;;17.57;10.70;;;;;;;;;;5057328;28;20219;-45
2022/12/13 05:32:38;;;;;;;16.97;9.87;;;;;;;;;;5057043;28;20555;-45
2022/12/13 05:35:14;;;;;;;15.53;9.40;;;;;;;;;;5057085;28;20246;-45
2022/12/13 05:37:52;;;;;;;17.37;10.07;;;;;;;;;;5056362;28;20238;-51
2022/12/13 05:40:26;;;;;;;16.03;9.40;;;;;;;;;;5057096;28;20235;-46
2022/12/13 05:42:54;;;;;;;12.90;8.57;;;;;;;;;;5056841;28;20228;-46
2022/12/13 05:45:27;;;;;;;15.70;9.13;;;;;;;;;;5056736;28;20216;-46
2022/12/13 05:47:54;;;;;;;14.50;9.70;;;;;;;;;;5056441;28;20243;-47
2022/12/13 05:50:21;;;;;;;18.00;10.90;;;;;;;;;;5056361;28;20597;-45
2022/12/13 05:52:49;;;;;;;18.37;10.87;;;;;;;;;;5056610;28;20231;-50
2022/12/13 05:55:16;;;;;;;16.43;10.53;;;;;;;;;;5055533;28;20314;-45
2022/12/13 05:57:44;;;;;;;20.37;11.10;;;;;;;;;;5055602;28;20541;-45
2022/12/13 06:00:17;;;;;;;18.50;11.70;;;;;;;;;;5056415;28;20281;-46
2022/12/13 06:02:58;;;;;;;19.87;11.53;;;;;;;;;;5054470;28;20246;-46
2022/12/13 06:05:28;;;;;;;22.00;11.07;;;;;;;;;;5045583;28;20208;-45
2022/12/13 06:07:55;;;;;;;22.47;13.33;;;;;;;;;;5056424;28;20294;-48
2022/12/13 06:10:25;;;;;;;19.03;11.70;;;;;;;;;;5055129;28;20234;-45
2022/12/13 06:13:04;;;;;;;19.33;11.33;;;;;;;;;;5056281;28;20224;-45
2022/12/13 06:15:52;;;;;;;29.47;15.30;;;;;;;;;;5055594;28;20231;-47
2022/12/13 06:18:32;;;;;;;28.17;15.23;;;;;;;;;;5055101;28;20235;-46
2022/12/13 06:21:02;;;;;;;32.43;17.43;;;;;;;;;;5056350;28;20220;-45
2022/12/13 06:23:30;;;;;;;39.40;18.63;;;;;;;;;;5056053;28;20720;-45
2022/12/13 06:25:57;;;;;;;51.13;23.10;;;;;;;;;;5056282;28;20315;-46
2022/12/13 06:28:24;;;;;;;39.17;17.80;;;;;;;;;;5056005;28;20232;-46
2022/12/13 06:30:51;;;;;;;33.37;16.53;;;;;;;;;;5055515;28;20306;-47
2022/12/13 06:33:19;;;;;;;25.87;14.60;;;;;;;;;;5056180;28;20212;-45
2022/12/13 06:35:51;;;;;;;34.63;19.00;;;;;;;;;;5056078;28;20220;-49
2022/12/13 06:38:18;;;;;;;33.03;17.33;;;;;;;;;;5055880;28;20235;-46
2022/12/13 06:41:07;;;;;;;41.00;20.83;;;;;;;;;;5055658;28;20224;-46
2022/12/13 06:43:35;;;;;;;28.13;15.20;;;;;;;;;;5056210;28;20231;-45
2022/12/13 06:46:04;;;;;;;33.23;16.60;;;;;;;;;;5054641;28;20306;-45
2022/12/13 06:48:32;;;;;;;32.17;16.90;;;;;;;;;;5055795;28;20239;-45
2022/12/13 06:51:00;;;;;;;29.73;16.03;;;;;;;;;;5055308;28;20224;-45
2022/12/13 06:53:28;;;;;;;31.37;17.23;;;;;;;;;;5055733;28;20286;-45
2022/12/13 06:55:55;;;;;;;40.63;18.47;;;;;;;;;;5055536;28;20228;-45
2022/12/13 06:58:23;;;;;;;36.40;17.33;;;;;;;;;;5055430;28;20224;-45
2022/12/13 07:01:00;;;;;;;35.27;17.53;;;;;;;;;;5054908;28;20281;-48
2022/12/13 07:03:28;;;;;;;30.33;16.10;;;;;;;;;;5055882;28;20235;-46
2022/12/13 07:05:55;;;;;;;31.87;16.23;;;;;;;;;;5055246;28;20228;-45
2022/12/13 07:08:24;;;;;;;30.97;17.20;;;;;;;;;;5055272;28;20240;-45
2022/12/13 07:10:55;;;;;;;29.00;15.40;;;;;;;;;;5055054;28;20751;-46
2022/12/13 07:13:22;;;;;;;38.20;18.77;;;;;;;;;;5055476;28;20227;-47
2022/12/13 07:15:49;;;;;;;29.80;16.57;;;;;;;;;;5054737;28;20228;-50
2022/12/13 07:18:17;;;;;;;32.40;17.80;;;;;;;;;;5055492;28;20572;-46
2022/12/13 07:20:44;;;;;;;33.60;20.03;;;;;;;;;;5055178;28;20232;-46
2022/12/13 07:23:11;;;;;;;30.47;17.23;;;;;;;;;;5055196;28;20235;-46
2022/12/13 07:25:39;;;;;;;36.40;19.17;;;;;;;;;;5054976;28;20258;-45
2022/12/13 07:28:07;;;;;;;31.97;18.67;;;;;;;;;;5054039;28;20323;-45
2022/12/13 07:30:37;;;;;;;29.57;16.87;;;;;;;;;;5054277;28;20224;-45
2022/12/13 07:33:08;;;;;;;42.90;20.97;;;;;;;;;;5054605;28;20224;-46
2022/12/13 07:35:35;;;;;;;35.40;18.87;;;;;;;;;;5054333;28;20228;-45
2022/12/13 07:38:05;;;;;;;42.67;20.87;;;;;;;;;;5055010;28;20235;-45
2022/12/13 07:40:33;;;;;;;55.77;26.43;;;;;;;;;;5054593;28;20592;-48
2022/12/13 07:43:01;;;;;;;37.77;20.13;;;;;;;;;;5054715;28;20219;-47
2022/12/13 07:45:28;;;;;;;39.60;21.70;;;;;;;;;;5054563;28;20232;-46
2022/12/13 07:47:55;;;;;;;33.17;19.50;;;;;;;;;;5053977;28;20337;-47
2022/12/13 07:50:22;;;;;;;35.63;19.87;;;;;;;;;;5054839;28;20239;-46
2022/12/13 07:52:51;;;;;;;31.47;18.83;;;;;;;;;;5053406;28;20224;-56
2022/12/13 07:55:20;;;;;;;34.37;19.10;;;;;;;;;;5054391;28;20243;-47
2022/12/13 07:58:07;;;;;;;33.90;19.17;;;;;;;;;;5053876;28;20311;-46
2022/12/13 08:00:35;;;;;;;34.17;19.23;;;;;;;;;;5053812;28;20579;-47
2022/12/13 08:03:02;;;;;;;37.37;19.83;;;;;;;;;;5053697;28;20224;-45
2022/12/13 08:05:29;;;;;;;38.17;20.80;;;;;;;;;;5054229;28;20690;-45
2022/12/13 08:08:07;;;;;;;43.50;22.30;;;;;;;;;;5053091;28;20235;-45
2022/12/13 08:10:34;;;;;;;39.87;21.73;;;;;;;;;;5054295;28;20224;-46
2022/12/13 08:13:02;;;;;;;48.17;26.27;;;;;;;;;;5053757;28;20243;-45
2022/12/13 08:15:29;;;;;;;35.93;21.00;;;;;;;;;;5053813;28;20227;-46
2022/12/13 08:17:59;;;;;;;40.33;20.50;;;;;;;;;;5053253;28;20256;-46
2022/12/13 08:20:28;;;;;;;36.77;21.20;;;;;;;;;;5054255;28;20220;-45
2022/12/13 08:22:57;;;;;;;35.97;19.70;;;;;;;;;;5052950;28;20227;-46
2022/12/13 08:25:29;;;;;;;35.63;20.57;;;;;;;;;;5054036;28;20227;-46
2022/12/13 08:27:56;;;;;;;35.70;20.17;;;;;;;;;;5053545;28;20255;-45
2022/12/13 08:30:29;;;;;;;39.77;21.37;;;;;;;;;;5053798;28;20224;-45
2022/12/13 08:32:56;;;;;;;43.43;23.03;;;;;;;;;;5053387;28;20224;-46
2022/12/13 08:35:27;;;;;;;42.77;21.97;;;;;;;;;;5053906;28;20236;-46
2022/12/13 08:38:00;;;;;;;36.60;21.83;;;;;;;;;;5052885;28;20223;-45
2022/12/13 08:40:27;;;;;;;40.13;21.57;;;;;;;;;;5052487;28;20223;-45
2022/12/13 08:42:55;;;;;;;35.87;21.03;;;;;;;;;;5053420;28;20227;-47
2022/12/13 08:45:23;;;;;;;46.80;22.00;;;;;;;;;;5053192;28;20236;-46
2022/12/13 08:47:49;;;;;;;42.53;23.87;;;;;;;;;;5053835;28;20255;-46
2022/12/13 08:50:17;;;;;;;47.57;23.80;;;;;;;;;;5053825;28;20212;-45
2022/12/13 08:52:44;;;;;;;36.53;21.77;;;;;;;;;;5053814;28;20236;-45
2022/12/13 08:55:13;;;;;;;40.20;21.97;;;;;;;;;;5053764;28;20219;-45
2022/12/13 08:57:41;;;;;;;38.30;21.80;;;;;;;;;;5054395;28;20543;-45
2022/12/13 09:00:11;;;;;;;35.57;20.93;;;;;;;;;;5054337;28;20673;-45
2022/12/13 09:02:38;;;;;;;44.57;24.07;;;;;;;;;;5054724;28;20274;-46
2022/12/13 09:05:07;;;;;;;42.33;22.60;;;;;;;;;;5054327;28;20223;-46
2022/12/13 09:07:35;;;;;;;41.97;23.33;;;;;;;;;;5054221;28;20639;-45
2022/12/13 09:10:03;;;;;;;43.40;22.63;;;;;;;;;;5054587;28;20207;-45
2022/12/13 09:12:50;;;;;;;36.13;20.77;;;;;;;;;;5054885;28;20188;-45
2022/12/13 09:15:17;;;;;;;38.47;22.57;;;;;;;;;;5049097;28;20297;-46
2022/12/13 09:17:49;;;;;;;40.50;23.40;;;;;;;;;;5053390;28;20228;-45
2022/12/13 09:20:19;;;;;;;42.00;22.70;;;;;;;;;;5052919;28;20242;-46
2022/12/13 09:22:55;;;;;;;39.63;22.93;;;;;;;;;;5041415;28;20235;-45
2022/12/13 09:25:30;;;;;;;47.17;25.00;;;;;;;;;;5042012;28;20216;-45
2022/12/13 09:28:07;;;;;;;37.87;21.97;;;;;;;;;;5040646;28;20235;-46
2022/12/13 09:30:35;;;;;;;33.93;21.03;;;;;;;;;;5039162;28;20233;-45
2022/12/13 09:33:03;;;;;;;38.27;21.40;;;;;;;;;;5032562;28;20639;-48
2022/12/13 09:35:51;;;;;;;37.10;21.33;;;;;;;;;;5033610;28;20235;-45
2022/12/13 09:38:18;;;;;;;37.37;21.03;;;;;;;;;;5032515;28;20228;-45
2022/12/13 09:40:47;;;;;;;38.97;21.47;;;;;;;;;;5033287;28;20693;-45
2022/12/13 09:43:31;;;;;;;37.07;21.97;;;;;;;;;;5032348;28;20602;-45
2022/12/13 09:46:25;;;;;;;37.17;22.20;;;;;;;;;;5032897;28;20232;-46
2022/12/13 09:49:01;;;;;;;38.33;21.67;;;;;;;;;;5032587;28;20248;-47
2022/12/13 09:51:31;;;;;;;28.23;17.77;;;;;;;;;;5045541;28;20220;-45
2022/12/13 09:54:16;;;;;;;32.00;18.33;;;;;;;;;;5056090;28;20228;-46
2022/12/13 09:56:49;;;;;;;29.23;16.53;;;;;;;;;;5056473;28;20224;-46
2022/12/13 09:59:28;;;;;;;27.57;17.43;;;;;;;;;;5055571;28;20269;-45
2022/12/13 10:02:02;;;;;;;26.77;15.20;;;;;;;;;;5055550;28;20220;-46
2022/12/13 10:04:29;;;;;;;28.63;17.27;;;;;;;;;;5056588;28;20232;-46
2022/12/13 10:06:58;;;;;;;26.77;16.80;;;;;;;;;;5054705;28;20239;-46
2022/12/13 10:09:25;;;;;;;30.73;16.93;;;;;;;;;;5055262;28;20565;-50
2022/12/13 10:11:53;;;;;;;32.37;18.47;;;;;;;;;;5055108;28;20228;-46
2022/12/13 10:14:25;;;;;;;35.57;20.80;;;;;;;;;;5055419;28;20220;-47
2022/12/13 10:16:56;;;;;;;44.77;22.67;;;;;;;;;;5055406;28;20368;-46
2022/12/13 10:19:34;;;;;;;34.83;21.33;;;;;;;;;;5054961;28;20729;-45
2022/12/13 10:22:09;;;;;;;31.23;17.60;;;;;;;;;;5054922;28;20662;-46
2022/12/13 10:24:56;;;;;;;28.93;18.30;;;;;;;;;;5055168;28;20736;-47
2022/12/13 10:27:37;;;;;;;27.30;17.70;;;;;;;;;;5055740;28;20381;-46
2022/12/13 10:30:21;;;;;;;27.70;16.23;;;;;;;;;;5055360;28;20558;-45
2022/12/13 10:32:57;;;;;;;25.77;16.07;;;;;;;;;;5055123;28;20219;-45
2022/12/13 10:35:38;;;;;;;23.40;15.07;;;;;;;;;;5054351;28;20224;-46
2022/12/13 10:38:12;;;;;;;28.10;16.40;;;;;;;;;;5054728;28;20224;-46
2022/12/13 10:40:44;;;;;;;27.97;15.90;;;;;;;;;;5056008;28;20220;-47
2022/12/13 10:43:17;;;;;;;23.37;14.87;;;;;;;;;;5054216;28;20228;-55
2022/12/13 10:46:02;;;;;;;24.17;14.77;;;;;;;;;;5055988;28;20239;-46
2022/12/13 10:48:38;;;;;;;25.77;14.90;;;;;;;;;;5055351;28;20658;-48
2022/12/13 10:51:10;;;;;;;21.40;14.50;;;;;;;;;;5054878;28;20245;-47
2022/12/13 10:53:39;;;;;;;22.00;14.93;;;;;;;;;;5054953;28;20220;-46
2022/12/13 10:56:15;;;;;;;20.40;12.80;;;;;;;;;;5055298;28;20231;-51
2022/12/13 10:59:16;;;;;;;23.17;13.97;;;;;;;;;;5054593;28;20227;-45
2022/12/13 11:01:43;;;;;;;30.97;16.60;;;;;;;;;;5033582;28;20537;-44
2022/12/13 11:04:37;;;;;;;24.80;14.60;;;;;;;;;;5037826;28;20258;-46
2022/12/13 11:07:27;;;;;;;26.83;14.17;;;;;;;;;;5051898;28;20521;-45
2022/12/13 11:09:55;;;;;;;24.43;14.27;;;;;;;;;;5054004;28;20228;-45
2022/12/13 11:12:31;;;;;;;23.93;15.63;;;;;;;;;;5054483;28;20222;-44
2022/12/13 11:15:02;;;;;;;24.20;13.83;;;;;;;;;;5055095;28;20207;-45
2022/12/13 11:17:31;;;;;;;24.37;14.43;;;;;;;;;;5054261;28;20243;-46
2022/12/13 11:20:03;;;;;;;22.93;13.73;;;;;;;;;;5055613;28;20204;-44
2022/12/13 11:22:33;;;;;;;26.60;16.00;;;;;;;;;;5054866;28;20200;-44
2022/12/13 11:25:02;;;;;;;24.20;14.37;;;;;;;;;;5056121;28;20204;-44
2022/12/13 11:27:44;;;;;;;21.73;13.87;;;;;;;;;;5055746;28;20212;-44
2022/12/13 11:30:50;;;;;;;24.83;14.97;;;;;;;;;;5054710;28;20258;-47
2022/12/13 11:33:25;;;;;;;23.50;13.80;;;;;;;;;;5055603;28;20602;-44
2022/12/13 11:36:12;;;;;;;22.50;14.33;;;;;;;;;;5055372;28;20204;-45
2022/12/13 11:38:54;;;;;;;21.70;13.27;;;;;;;;;;5055109;28;20288;-45
2022/12/13 11:41:47;;;;;;;19.37;12.07;;;;;;;;;;5055419;28;20216;-44
2022/12/13 11:44:18;;;;;;;21.13;12.47;;;;;;;;;;5055875;28;20262;-46
2022/12/13 11:46:50;;;;;;;24.67;13.60;;;;;;;;;;5054681;28;20273;-45
2022/12/13 11:49:39;;;;;;;19.63;13.17;;;;;;;;;;5055048;28;20228;-47
2022/12/13 11:52:12;;;;;;;21.17;13.10;;;;;;;;;;5055629;28;20200;-46
2022/12/13 11:54:42;;;;;;;28.13;17.77;;;;;;;;;;5055692;28;20235;-48
2022/12/13 11:57:19;;;;;;;22.43;14.53;;;;;;;;;;5055115;28;20239;-45
2022/12/13 11:59:51;;;;;;;21.53;14.77;;;;;;;;;;5055405;28;20219;-45
2022/12/13 12:02:34;;;;;;;22.17;14.97;;;;;;;;;;5055410;28;20250;-47
2022/12/13 12:05:13;;;;;;;22.30;14.07;;;;;;;;;;5054582;28;20212;-45
2022/12/13 12:07:44;;;;;;;32.47;17.53;;;;;;;;;;5054407;28;20523;-47
2022/12/13 12:10:42;;;;;;;22.93;15.00;;;;;;;;;;5053888;28;20734;-45
2022/12/13 12:13:20;;;;;;;26.70;15.53;;;;;;;;;;5053415;28;20176;-47
2022/12/13 12:16:10;;;;;;;23.83;15.37;;;;;;;;;;5053575;28;20203;-46
2022/12/13 12:18:37;;;;;;;24.33;15.87;;;;;;;;;;5011015;28;20238;-46
2022/12/13 12:21:23;;;;;;;27.23;17.07;;;;;;;;;;5053464;28;20598;-45
2022/12/13 12:24:13;;;;;;;23.80;15.47;;;;;;;;;;5033412;28;20686;-45
2022/12/13 12:26:58;;;;;;;24.13;16.27;;;;;;;;;;5041029;28;20227;-45
2022/12/13 12:29:41;;;;;;;24.97;16.10;;;;;;;;;;5047711;28;20297;-45
2022/12/13 12:32:25;;;;;;;23.50;15.23;;;;;;;;;;5047957;28;20654;-45
2022/12/13 12:34:55;;;;;;;24.07;14.00;;;;;;;;;;5052954;28;20232;-46
2022/12/13 12:37:41;;;;;;;23.30;14.13;;;;;;;;;;5054239;28;20227;-46
2022/12/13 12:40:37;;;;;;;24.57;14.30;;;;;;;;;;5053818;28;20289;-45
2022/12/13 12:43:32;;;;;;;21.93;14.10;;;;;;;;;;5053829;28;20244;-46
2022/12/13 12:46:40;;;;;;;21.57;13.97;;;;;;;;;;5051907;28;20219;-47
2022/12/13 12:49:45;;;;;;;24.07;14.97;;;;;;;;;;5053563;28;20239;-46
2022/12/13 12:52:37;;;;;;;29.43;16.03;;;;;;;;;;5053640;28;20250;-46
2022/12/13 12:55:13;;;;;;;25.70;16.13;;;;;;;;;;5053331;28;20234;-46
2022/12/13 12:57:55;;;;;;;23.63;13.50;;;;;;;;;;5053620;28;20232;-46
2022/12/13 13:00:30;;;;;;;26.43;16.20;;;;;;;;;;5053404;28;20245;-46
2022/12/13 13:03:19;;;;;;;34.37;21.53;;;;;;;;;;5052165;28;20677;-46
2022/12/13 13:05:51;;;;;;;22.50;14.87;;;;;;;;;;5052507;28;20231;-51
2022/12/13 13:08:35;;;;;;;24.63;16.23;;;;;;;;;;5053574;28;20235;-46
2022/12/13 13:11:03;;;;;;;29.07;16.40;;;;;;;;;;5049762;28;20216;-45
2022/12/13 13:14:25;;;;;;;25.37;15.47;;;;;;;;;;5052589;28;20223;-46
2022/12/13 13:16:54;;;;;;;27.00;17.97;;;;;;;;;;5050838;28;20677;-48
2022/12/13 13:19:30;;;;;;;33.00;18.23;;;;;;;;;;5053428;28;20236;-46
2022/12/13 13:21:58;;;;;;;30.17;16.67;;;;;;;;;;5053415;28;20251;-45
2022/12/13 13:24:30;;;;;;;29.67;17.00;;;;;;;;;;5052632;28;20307;-46
2022/12/13 13:27:18;;;;;;;26.77;16.60;;;;;;;;;;5054436;28;20220;-46
2022/12/13 13:29:46;;;;;;;22.67;15.73;;;;;;;;;;5057128;28;20239;-46
2022/12/13 13:32:16;;;;;;;25.20;16.60;;;;;;;;;;5052695;28;20303;-47
2022/12/13 13:35:34;;;;;;;23.77;15.83;;;;;;;;;;5037103;28;20234;-45
2022/12/13 13:38:04;;;;;;;22.43;15.47;;;;;;;;;;5018939;28;20679;-46
2022/12/13 13:40:33;;;;;;;30.20;16.50;;;;;;;;;;5035983;28;20809;-45
2022/12/13 13:43:09;;;;;;;23.50;14.07;;;;;;;;;;5053982;28;20248;-45
2022/12/13 13:45:48;;;;;;;25.30;15.87;;;;;;;;;;5056171;28;20227;-46
2022/12/13 13:48:37;;;;;;;24.63;14.73;;;;;;;;;;5057127;28;20243;-46
2022/12/13 13:51:38;;;;;;;26.87;16.30;;;;;;;;;;5035617;28;20266;-46
2022/12/13 13:54:46;;;;;;;27.90;15.57;;;;;;;;;;5048770;28;20216;-47
2022/12/13 13:57:39;;;;;;;26.23;15.07;;;;;;;;;;5055769;28;20220;-46
2022/12/13 14:01:05;;;;;;;35.63;17.37;;;;;;;;;;5055916;28;20220;-45
2022/12/13 14:03:39;;;;;;;26.33;16.13;;;;;;;;;;5056584;28;20223;-45
2022/12/13 14:06:31;;;;;;;26.17;16.20;;;;;;;;;;5052322;28;20254;-44
2022/12/13 14:09:04;;;;;;;24.97;15.00;;;;;;;;;;5055895;28;20289;-45
2022/12/13 14:12:05;;;;;;;23.83;15.57;;;;;;;;;;5056332;28;20697;-45
2022/12/13 14:15:07;;;;;;;24.73;14.90;;;;;;;;;;5056668;28;20230;-45
2022/12/13 14:18:02;;;;;;;26.77;15.47;;;;;;;;;;5055668;28;20239;-44
2022/12/13 14:21:02;;;;;;;27.60;15.47;;;;;;;;;;5056612;28;20216;-44
2022/12/13 14:23:37;;;;;;;25.53;14.67;;;;;;;;;;5040412;28;20228;-44
2022/12/13 14:26:37;;;;;;;29.23;16.60;;;;;;;;;;5055921;28;20226;-45
2022/12/13 14:29:11;;;;;;;28.60;16.67;;;;;;;;;;5056131;28;20219;-44
2022/12/13 14:31:45;;;;;;;26.73;15.97;;;;;;;;;;5055242;28;20670;-45
2022/12/13 14:34:22;;;;;;;30.83;17.80;;;;;;;;;;5056192;28;20246;-45
2022/12/13 14:36:56;;;;;;;29.07;17.00;;;;;;;;;;5054871;28;20289;-49
2022/12/13 14:39:28;;;;;;;26.97;17.37;;;;;;;;;;5054606;28;20243;-44
2022/12/13 14:41:57;;;;;;;24.93;15.57;;;;;;;;;;5055607;28;20228;-45
2022/12/13 14:44:27;;;;;;;24.50;15.67;;;;;;;;;;5055267;28;20232;-45
2022/12/13 14:47:06;;;;;;;25.03;17.07;;;;;;;;;;5054825;28;20239;-50
2022/12/13 14:49:35;;;;;;;29.50;16.23;;;;;;;;;;5056016;28;20224;-45
2022/12/13 14:52:05;;;;;;;24.50;16.13;;;;;;;;;;5054753;28;20236;-45
2022/12/13 14:54:52;;;;;;;33.03;17.37;;;;;;;;;;5047608;28;20242;-47
2022/12/13 14:57:27;;;;;;;31.90;17.63;;;;;;;;;;5055285;28;20224;-46
2022/12/13 14:59:56;;;;;;;30.80;17.10;;;;;;;;;;5048496;28;20232;-53
2022/12/13 15:02:29;;;;;;;41.37;21.90;;;;;;;;;;5040333;28;20239;-46